createdAt,value
2019-02-09T00:04:36.596Z,21.45
2019-02-09T00:09:40.616Z,21.45
2019-02-09T00:14:44.713Z,21.45
2019-02-09T00:19:48.823Z,21.40
2019-02-09T00:24:53.057Z,21.39
2019-02-09T00:29:57.394Z,21.36
2019-02-09T00:35:01.579Z,21.37
2019-02-09T00:40:07.400Z,21.37
2019-02-09T00:45:11.622Z,21.36
2019-02-09T00:50:16.451Z,21.33
2019-02-09T00:55:20.776Z,21.31
2019-02-09T01:00:25.798Z,21.32
2019-02-09T01:05:32.784Z,21.34
2019-02-09T01:10:36.989Z,21.30
2019-02-09T01:15:41.223Z,21.30
2019-02-09T01:20:45.390Z,21.30
2019-02-09T01:25:49.459Z,21.28
2019-02-09T01:30:53.509Z,21.28
2019-02-09T01:35:57.634Z,21.29
2019-02-09T01:41:01.832Z,21.28
2019-02-09T01:46:06.026Z,21.31
2019-02-09T01:51:10.203Z,21.25
2019-02-09T01:56:14.296Z,21.22
2019-02-09T02:01:18.387Z,21.16
2019-02-09T02:06:22.571Z,21.16
2019-02-09T02:11:26.669Z,21.16
2019-02-09T02:16:30.845Z,21.09
2019-02-09T02:21:35.017Z,21.09
2019-02-09T02:26:39.031Z,21.04
2019-02-09T02:31:43.150Z,21.02
2019-02-09T02:36:47.229Z,21.02
2019-02-09T02:41:51.350Z,20.97
2019-02-09T02:46:55.468Z,20.93
2019-02-09T02:51:59.479Z,20.93
2019-02-09T02:57:03.574Z,20.91
2019-02-09T03:02:07.781Z,20.91
2019-02-09T03:07:11.973Z,20.86
2019-02-09T03:12:15.976Z,20.86
2019-02-09T03:17:20.109Z,20.86
2019-02-09T03:22:24.125Z,20.84
2019-02-09T03:27:28.141Z,20.84
2019-02-09T03:32:32.230Z,20.83
2019-02-09T03:37:36.317Z,20.80
2019-02-09T03:42:40.493Z,20.79
2019-02-09T03:47:44.595Z,20.68
2019-02-09T03:52:48.799Z,20.76
2019-02-09T03:57:52.962Z,20.76
2019-02-09T04:02:57.377Z,20.72
2019-02-09T04:08:01.599Z,20.71
2019-02-09T04:13:05.718Z,20.68
2019-02-09T04:18:09.756Z,20.66
2019-02-09T04:23:13.779Z,20.64
2019-02-09T04:28:17.876Z,20.62
2019-02-09T04:33:21.914Z,20.62
2019-02-09T04:38:25.932Z,20.58
2019-02-09T04:43:29.966Z,20.56
2019-02-09T04:48:34.070Z,20.54
2019-02-09T04:53:38.105Z,20.55
2019-02-09T04:58:42.203Z,20.51
2019-02-09T05:03:46.357Z,20.49
2019-02-09T05:08:50.385Z,20.47
2019-02-09T05:13:54.487Z,20.45
2019-02-09T05:18:58.630Z,20.43
2019-02-09T05:24:02.674Z,20.41
2019-02-09T05:29:06.861Z,20.40
2019-02-09T05:34:10.917Z,20.39
2019-02-09T05:39:15.103Z,20.37
2019-02-09T05:44:19.187Z,20.38
2019-02-09T05:49:23.256Z,20.38
2019-02-09T05:54:27.318Z,20.37
2019-02-09T05:59:31.411Z,20.37
2019-02-09T06:04:35.593Z,20.35
2019-02-09T06:09:39.762Z,20.33
2019-02-09T06:14:43.943Z,20.35
2019-02-09T06:19:47.970Z,20.35
2019-02-09T06:24:52.081Z,20.33
2019-02-09T06:29:56.100Z,20.32
2019-02-09T06:35:00.316Z,20.31
2019-02-09T06:40:05.162Z,20.30
2019-02-09T06:45:11.606Z,20.30
2019-02-09T06:50:27.604Z,20.27
2019-02-09T06:55:31.633Z,20.27
2019-02-09T07:00:35.637Z,20.25
2019-02-09T07:05:39.747Z,20.23
2019-02-09T07:10:43.859Z,20.22
2019-02-09T07:15:48.024Z,20.21
2019-02-09T07:20:52.174Z,20.19
2019-02-09T07:25:56.356Z,20.19
2019-02-09T07:31:00.513Z,20.18
2019-02-09T07:36:04.868Z,20.18
2019-02-09T07:41:08.887Z,20.17
2019-02-09T07:46:13.018Z,20.18
2019-02-09T07:51:17.120Z,20.16
2019-02-09T07:56:21.141Z,20.16
2019-02-09T08:01:25.229Z,20.15
2019-02-09T08:06:29.261Z,19.75
2019-02-09T08:11:33.362Z,19.71
2019-02-09T08:16:37.623Z,19.97
2019-02-09T08:21:42.145Z,20.80
2019-02-09T08:26:46.366Z,21.20
2019-02-09T08:31:50.469Z,21.48
2019-02-09T08:36:54.756Z,21.39
2019-02-09T08:41:58.925Z,21.39
2019-02-09T08:47:02.945Z,21.14
2019-02-09T08:52:07.136Z,21.01
2019-02-09T08:57:11.230Z,21.01
2019-02-09T09:02:20.431Z,20.93
2019-02-09T09:07:21.340Z,20.84
2019-02-09T09:12:25.567Z,20.78
2019-02-09T09:17:29.674Z,20.79
2019-02-09T09:22:33.832Z,20.74
2019-02-09T09:27:38.022Z,20.71
2019-02-09T09:32:42.248Z,20.73
2019-02-09T09:37:46.614Z,20.75
2019-02-09T09:42:50.912Z,20.74
2019-02-09T09:47:55.172Z,20.77
2019-02-09T09:52:59.443Z,20.77
2019-02-09T09:58:03.778Z,20.94
2019-02-09T10:03:08.267Z,20.94
2019-02-09T10:08:12.481Z,20.96
2019-02-09T10:13:16.659Z,20.95
2019-02-09T10:18:20.896Z,20.92
2019-02-09T10:23:25.013Z,20.92
2019-02-09T10:28:29.283Z,20.90
2019-02-09T10:33:33.376Z,20.91
2019-02-09T10:38:38.026Z,20.94
2019-02-09T10:43:42.366Z,21.01
2019-02-09T10:48:46.489Z,21.03
2019-02-09T10:53:50.550Z,21.02
2019-02-09T10:58:54.669Z,20.85
2019-02-09T11:03:58.873Z,20.80
2019-02-09T11:09:04.601Z,20.76
2019-02-09T11:14:08.920Z,20.76
2019-02-09T11:19:13.064Z,20.93
2019-02-09T11:24:17.220Z,20.93
2019-02-09T11:29:21.347Z,20.97
2019-02-09T11:34:25.581Z,20.99
2019-02-09T11:39:30.698Z,21.01
2019-02-09T11:44:41.031Z,21.11
2019-02-09T11:49:40.877Z,21.14
2019-02-09T11:54:45.241Z,21.16
2019-02-09T11:59:49.344Z,21.09
2019-02-09T12:04:54.001Z,21.10
2019-02-09T12:09:58.222Z,21.07
2019-02-09T12:15:02.602Z,21.07
2019-02-09T12:20:08.900Z,21.10
2019-02-09T12:25:16.115Z,21.09
2019-02-09T12:30:22.713Z,21.06
2019-02-09T12:35:27.981Z,21.07
2019-02-09T12:40:33.048Z,21.11
2019-02-09T12:45:37.711Z,21.12
2019-02-09T12:50:41.987Z,21.12
2019-02-09T12:55:46.139Z,21.13
2019-02-09T13:00:50.368Z,21.13
2019-02-09T13:05:54.787Z,21.23
2019-02-09T13:10:59.187Z,21.30
2019-02-09T13:16:03.578Z,21.30
2019-02-09T13:21:08.050Z,21.32
2019-02-09T13:26:12.339Z,21.22
2019-02-09T13:31:16.713Z,21.22
2019-02-09T13:36:20.883Z,21.27
2019-02-09T13:41:25.047Z,21.27
2019-02-09T13:46:29.259Z,21.24
2019-02-09T13:51:33.383Z,21.23
2019-02-09T13:56:37.558Z,21.23
2019-02-09T14:01:41.803Z,21.25
2019-02-09T14:06:45.931Z,21.18
2019-02-09T14:11:50.231Z,21.30
2019-02-09T14:16:54.700Z,21.27
2019-02-09T14:21:59.250Z,21.27
2019-02-09T14:27:03.726Z,21.13
2019-02-09T14:32:08.157Z,21.24
2019-02-09T14:37:12.586Z,21.24
2019-02-09T14:42:16.999Z,21.24
2019-02-09T14:47:21.282Z,21.23
2019-02-09T14:52:25.536Z,21.24
2019-02-09T14:57:29.826Z,21.25
2019-02-09T15:02:34.108Z,21.25
2019-02-09T15:07:38.442Z,21.22
2019-02-09T15:12:42.853Z,21.19
2019-02-09T15:17:47.412Z,21.19
2019-02-09T15:22:52.010Z,21.19
2019-02-09T15:27:56.391Z,21.19
2019-02-09T15:33:00.648Z,21.17
2019-02-09T15:38:05.339Z,21.13
2019-02-09T15:43:09.518Z,21.13
2019-02-09T15:48:13.678Z,21.12
2019-02-09T15:53:17.774Z,21.12
2019-02-09T15:58:22.193Z,21.04
2019-02-09T16:03:26.474Z,21.03
2019-02-09T16:08:30.660Z,21.03
2019-02-09T16:13:34.850Z,20.91
2019-02-09T16:18:39.539Z,20.91
2019-02-09T16:23:43.687Z,20.99
2019-02-09T16:28:47.948Z,20.94
2019-02-09T16:33:52.496Z,20.91
2019-02-09T16:38:58.801Z,20.94
2019-02-09T16:44:03.728Z,20.96
2019-02-09T16:49:08.061Z,20.94
2019-02-09T16:54:12.882Z,20.94
2019-02-09T16:59:17.183Z,20.95
2019-02-09T17:04:22.079Z,20.96
2019-02-09T17:09:26.353Z,21.38
2019-02-09T17:14:30.942Z,21.97
2019-02-09T17:19:35.404Z,22.17
2019-02-09T17:24:41.828Z,22.24
2019-02-09T17:29:48.727Z,22.36
2019-02-09T17:34:56.110Z,22.30
2019-02-09T17:40:00.918Z,22.50
2019-02-09T17:45:07.565Z,22.54
2019-02-09T17:50:27.072Z,22.50
2019-02-09T17:55:43.918Z,22.47
2019-02-09T18:00:52.642Z,22.52
2019-02-09T18:05:57.550Z,22.47
2019-02-09T18:11:02.074Z,22.56
2019-02-09T18:16:06.519Z,22.56
2019-02-09T18:21:10.765Z,22.53
2019-02-09T18:26:23.957Z,22.54
2019-02-09T18:37:05.443Z,22.60
2019-02-09T18:42:11.888Z,22.62
2019-02-09T18:47:16.547Z,22.59
2019-02-09T18:52:23.084Z,22.54
2019-02-09T18:57:28.517Z,22.39
2019-02-09T19:02:38.510Z,22.39
2019-02-09T19:13:00.752Z,22.35
2019-02-09T19:18:14.574Z,22.51
2019-02-09T19:28:51.533Z,22.68
2019-02-09T19:40:02.943Z,22.62
2019-02-09T19:45:10.503Z,22.48
2019-02-09T19:50:15.198Z,22.29
2019-02-09T19:56:07.976Z,22.21
2019-02-09T20:01:58.759Z,22.21
2019-02-09T20:07:07.663Z,22.43
2019-02-09T20:12:13.347Z,22.43
2019-02-09T20:17:54.852Z,22.42
2019-02-09T20:28:35.826Z,22.38
2019-02-09T20:33:40.084Z,22.33
2019-02-09T20:38:44.338Z,22.19
2019-02-09T20:43:48.614Z,22.14
2019-02-09T20:48:52.782Z,22.14
2019-02-09T20:53:57.090Z,21.97
2019-02-09T20:59:01.320Z,21.94
2019-02-09T21:04:05.685Z,21.88
2019-02-09T21:09:10.045Z,21.82
2019-02-09T21:14:14.461Z,21.82
2019-02-09T21:19:18.859Z,21.75
2019-02-09T21:24:23.188Z,21.76
2019-02-09T21:29:27.612Z,21.76
2019-02-09T21:34:31.762Z,21.68
2019-02-09T21:39:36.102Z,21.65
2019-02-09T21:44:40.330Z,21.63
2019-02-09T21:49:44.668Z,21.62
2019-02-09T21:54:49.018Z,21.66
2019-02-09T21:59:53.343Z,21.62
2019-02-09T22:04:57.525Z,21.58
2019-02-09T22:10:01.736Z,21.58
2019-02-09T22:15:07.542Z,21.58
2019-02-09T22:20:13.069Z,21.60
2019-02-09T22:25:19.134Z,21.56
2019-02-09T22:30:27.662Z,21.56
2019-02-09T22:35:31.936Z,21.55
2019-02-09T22:40:37.026Z,21.55
2019-02-09T22:45:41.512Z,21.56
2019-02-09T22:50:46.901Z,21.43
2019-02-09T22:55:51.266Z,21.43
2019-02-09T23:01:28.499Z,21.42
2019-02-09T23:06:41.240Z,21.40
2019-02-09T23:11:45.663Z,21.43
2019-02-09T23:16:50.135Z,21.39
2019-02-09T23:21:56.682Z,21.42
2019-02-09T23:27:01.020Z,21.33
2019-02-09T23:32:05.426Z,21.38
2019-02-09T23:37:09.622Z,21.39
2019-02-09T23:42:14.122Z,21.38
2019-02-09T23:47:18.542Z,21.31
2019-02-09T23:52:22.982Z,21.25
2019-02-09T23:57:27.381Z,21.30
